METAR Data
IDs: Format: Raw Decoded Include TAF

Data at: 1216 UTC 17 Sep 2019

METAR for:KPUB (Pueblo Mem Arpt, CO, US)
Text:KPUB 171153Z 13005KT 10SM CLR 14/08 A2994 RMK AO2 SLP077 T01390078 10183 20133 53006
Temperature: 13.9°C ( 57°F)
Dewpoint: 7.8°C ( 46°F) [RH = 67%]
Pressure (altimeter):29.94 inches Hg (1014.0 mb) [Sea level pressure: 1007.7 mb]
Winds:from the SE (130 degrees) at 6 MPH (5 knots; 2.6 m/s)
Visibility:10 or more sm (16+ km)
Ceiling:at least 12,000 feet AGL
Clouds:sky clear below 12,000 feet AGL